createdAt,value
2022-11-16T00:01:00.852Z,95142.50
2022-11-16T00:03:29.523Z,95131.31
2022-11-16T00:05:58.990Z,95122.75
2022-11-16T00:08:30.614Z,95125.78
2022-11-16T00:11:06.370Z,95119.88
2022-11-16T00:13:35.353Z,95107.69
2022-11-16T00:16:04.494Z,95103.63
2022-11-16T00:18:33.487Z,95088.00
2022-11-16T00:21:05.210Z,95086.38
2022-11-16T00:23:38.367Z,95071.75
2022-11-16T00:26:08.113Z,95070.13
2022-11-16T00:28:36.918Z,95064.00
2022-11-16T00:31:07.374Z,95044.59
2022-11-16T00:33:36.311Z,95037.88
2022-11-16T00:36:06.733Z,95033.78
2022-11-16T00:38:36.962Z,95039.88
2022-11-16T00:41:05.460Z,95040.06
2022-11-16T00:43:36.155Z,95032.97
2022-11-16T00:46:05.339Z,95023.25
2022-11-16T00:48:33.981Z,95016.38
2022-11-16T00:51:02.523Z,95020.38
2022-11-16T00:53:31.027Z,95019.13
2022-11-16T00:56:00.750Z,95011.38
2022-11-16T00:58:29.086Z,95032.47
2022-11-16T01:00:57.536Z,95032.34
2022-11-16T01:03:25.878Z,95040.19
2022-11-16T01:05:54.210Z,95037.38
2022-11-16T01:08:22.521Z,95036.38
2022-11-16T01:10:50.866Z,95022.94
2022-11-16T01:13:19.606Z,95041.38
2022-11-16T01:15:49.145Z,95040.63
2022-11-16T01:18:17.459Z,95041.84
2022-11-16T01:20:45.766Z,95038.38
2022-11-16T01:23:14.151Z,95039.19
2022-11-16T01:25:42.795Z,95036.38
2022-11-16T01:28:11.131Z,95033.13
2022-11-16T01:30:40.781Z,95031.13
2022-11-16T01:33:09.101Z,95036.69
2022-11-16T01:35:37.526Z,95041.38
2022-11-16T01:38:05.886Z,95031.94
2022-11-16T01:40:34.230Z,95034.75
2022-11-16T01:43:02.550Z,95034.03
2022-11-16T01:45:38.626Z,95025.41
2022-11-16T01:48:09.142Z,95018.78
2022-11-16T01:50:39.507Z,95012.16
2022-11-16T01:53:10.748Z,95009.97
2022-11-16T01:55:41.349Z,95007.50
2022-11-16T01:58:11.826Z,94998.81
2022-11-16T02:00:40.177Z,94988.09
2022-11-16T02:03:09.882Z,95003.50
2022-11-16T02:05:50.794Z,94999.25
2022-11-16T02:08:54.679Z,94994.53
2022-11-16T02:11:34.630Z,94987.88
2022-11-16T02:14:15.321Z,94996.63
2022-11-16T02:16:51.695Z,94996.81
2022-11-16T02:19:47.650Z,94988.00
2022-11-16T02:22:26.587Z,94988.91
2022-11-16T02:25:03.966Z,94980.22
2022-11-16T02:28:09.809Z,94982.47
2022-11-16T02:30:46.170Z,94982.84
2022-11-16T02:33:19.484Z,94974.94
2022-11-16T02:35:51.900Z,94982.09
2022-11-16T02:38:25.556Z,94974.31
2022-11-16T02:40:58.378Z,94973.13
2022-11-16T02:43:33.283Z,94965.69
2022-11-16T02:46:09.042Z,94963.69
2022-11-16T02:48:42.861Z,94957.44
2022-11-16T02:51:12.236Z,94961.25
2022-11-16T02:53:47.581Z,94956.00
2022-11-16T02:56:16.825Z,94956.81
2022-11-16T02:58:45.163Z,94952.75
2022-11-16T03:01:18.395Z,94950.66
2022-11-16T03:03:54.083Z,94960.81
2022-11-16T03:06:25.734Z,94967.78
2022-11-16T03:09:01.531Z,94964.69
2022-11-16T03:11:49.293Z,94956.81
2022-11-16T03:14:21.636Z,94958.00
2022-11-16T03:16:54.828Z,94957.81
2022-11-16T03:19:32.096Z,94954.19
2022-11-16T03:22:07.678Z,94946.94
2022-11-16T03:24:36.090Z,94946.13
2022-11-16T03:27:12.285Z,94947.38
2022-11-16T03:29:46.625Z,94952.47
2022-11-16T03:32:21.752Z,94958.00
2022-11-16T03:34:57.894Z,94962.00
2022-11-16T03:37:27.309Z,94969.25
2022-11-16T03:39:58.771Z,94968.28
2022-11-16T03:42:28.712Z,94966.16
2022-11-16T03:44:57.685Z,94972.59
2022-11-16T03:47:27.414Z,94968.72
2022-11-16T03:49:55.801Z,94970.16
2022-11-16T03:52:24.392Z,94983.59
2022-11-16T03:54:52.920Z,94989.31
2022-11-16T03:57:21.278Z,94992.38
2022-11-16T03:59:49.576Z,94990.13
2022-11-16T04:02:17.895Z,95015.59
2022-11-16T04:05:05.016Z,95013.88
2022-11-16T04:07:51.012Z,95010.50
2022-11-16T04:10:36.905Z,95020.84
2022-11-16T04:13:23.194Z,95025.00
2022-11-16T04:16:08.760Z,95038.13
2022-11-16T04:18:55.095Z,95035.59
2022-11-16T04:21:45.306Z,95048.81
2022-11-16T04:24:17.209Z,95043.41
2022-11-16T04:27:07.048Z,95036.78
2022-11-16T04:29:36.680Z,95032.91
2022-11-16T04:32:22.965Z,95031.00
2022-11-16T04:35:08.724Z,95046.25
2022-11-16T04:37:52.358Z,95051.06
2022-11-16T04:40:23.347Z,95068.53
2022-11-16T04:42:52.333Z,95061.22
2022-11-16T04:45:38.174Z,95062.47
2022-11-16T04:48:07.202Z,95074.28
2022-11-16T04:50:36.392Z,95061.94
2022-11-16T04:53:06.888Z,95063.59
2022-11-16T04:55:35.859Z,95075.09
2022-11-16T04:58:04.339Z,95075.56
2022-11-16T05:00:33.021Z,95084.78
2022-11-16T05:03:02.012Z,95094.03
2022-11-16T05:05:30.445Z,95101.81
2022-11-16T05:07:58.831Z,95098.06
2022-11-16T05:10:28.517Z,95107.13
2022-11-16T05:12:56.874Z,95110.66
2022-11-16T05:15:25.177Z,95110.47
2022-11-16T05:17:55.749Z,95111.22
2022-11-16T05:20:41.665Z,95109.22
2022-11-16T05:23:30.654Z,95116.22
2022-11-16T05:26:00.310Z,95115.53
2022-11-16T05:28:28.638Z,95113.34
2022-11-16T05:30:57.042Z,95114.63
2022-11-16T05:33:25.392Z,95120.34
2022-11-16T05:35:53.964Z,95118.56
2022-11-16T05:38:22.358Z,95118.19
2022-11-16T05:40:50.682Z,95122.72
2022-11-16T05:43:20.538Z,95126.63
2022-11-16T05:45:48.882Z,95129.94
2022-11-16T05:48:17.214Z,95135.84
2022-11-16T05:50:45.563Z,95143.34
2022-11-16T05:53:13.884Z,95137.94
2022-11-16T05:55:42.190Z,95138.72
2022-11-16T05:58:10.525Z,95137.94
2022-11-16T06:00:40.195Z,95147.25
2022-11-16T06:03:08.611Z,95143.66
2022-11-16T06:05:40.441Z,95147.09
2022-11-16T06:08:09.454Z,95150.09
2022-11-16T06:10:37.976Z,95149.25
2022-11-16T06:13:06.338Z,95147.25
2022-11-16T06:15:38.018Z,95151.25
2022-11-16T06:18:08.579Z,95155.72
2022-11-16T06:20:39.272Z,95161.59
2022-11-16T06:23:07.827Z,95160.78
2022-11-16T06:25:36.215Z,95160.63
2022-11-16T06:28:07.927Z,95159.78
2022-11-16T06:30:36.712Z,95162.41
2022-11-16T06:33:05.379Z,95163.44
2022-11-16T06:35:35.115Z,95162.59
2022-11-16T06:38:03.507Z,95165.44
2022-11-16T06:40:32.729Z,95164.16
2022-11-16T06:43:01.247Z,95165.13
2022-11-16T06:45:29.643Z,95165.94
2022-11-16T06:47:57.977Z,95164.97
2022-11-16T06:50:26.269Z,95161.13
2022-11-16T06:52:55.933Z,95172.94
2022-11-16T06:55:24.312Z,95163.06
2022-11-16T06:57:52.863Z,95167.81
2022-11-16T07:00:21.250Z,95172.06
2022-11-16T07:02:49.625Z,95175.31
2022-11-16T07:05:17.980Z,95173.53
2022-11-16T07:07:46.648Z,95162.81
2022-11-16T07:10:16.627Z,95170.53
2022-11-16T07:12:45.230Z,95170.19
2022-11-16T07:15:13.591Z,95165.09
2022-11-16T07:17:42.488Z,95166.44
2022-11-16T07:20:12.024Z,95167.09
2022-11-16T07:22:40.512Z,95160.63
2022-11-16T07:25:10.019Z,95163.91
2022-11-16T07:27:39.717Z,95160.94
2022-11-16T07:30:09.471Z,95166.00
2022-11-16T07:32:39.858Z,95160.94
2022-11-16T07:35:08.900Z,95162.53
2022-11-16T07:37:37.297Z,95157.91
2022-11-16T07:40:06.483Z,95160.75
2022-11-16T07:42:35.074Z,95166.66
2022-11-16T07:45:05.307Z,95169.28
2022-11-16T07:47:37.255Z,95170.44
2022-11-16T07:50:06.984Z,95164.19
2022-11-16T07:52:35.394Z,95172.91
2022-11-16T07:55:03.805Z,95170.09
2022-11-16T07:57:32.969Z,95170.09
2022-11-16T08:00:01.560Z,95167.28
2022-11-16T08:02:31.266Z,95174.16
2022-11-16T08:04:59.587Z,95171.38
2022-11-16T08:07:27.932Z,95166.56
2022-11-16T08:09:56.617Z,95175.91
2022-11-16T08:12:25.090Z,95173.09
2022-11-16T08:14:53.538Z,95164.84
2022-11-16T08:17:21.952Z,95171.75
2022-11-16T08:19:51.786Z,95167.09
2022-11-16T08:22:20.287Z,95157.22
2022-11-16T08:24:49.322Z,95159.66
2022-11-16T08:27:17.692Z,95162.94
2022-11-16T08:29:46.051Z,95162.13
2022-11-16T08:32:14.327Z,95162.75
2022-11-16T08:34:42.678Z,95164.19
2022-11-16T08:37:12.363Z,95161.41
2022-11-16T08:39:40.743Z,95165.13
2022-11-16T08:42:09.252Z,95161.47
2022-11-16T08:44:37.546Z,95163.13
2022-11-16T08:47:06.002Z,95160.94
2022-11-16T08:49:34.475Z,95169.47
2022-11-16T08:52:02.908Z,95168.94
2022-11-16T08:54:32.878Z,95161.66
2022-11-16T08:57:01.226Z,95157.00
2022-11-16T08:59:29.774Z,95169.22
2022-11-16T09:01:58.145Z,95167.03
2022-11-16T09:04:26.754Z,95169.09
2022-11-16T09:06:55.176Z,95173.38
2022-11-16T09:09:23.698Z,95173.00
2022-11-16T09:11:55.686Z,95175.47
2022-11-16T09:14:23.997Z,95176.53
2022-11-16T09:16:52.409Z,95174.41
2022-11-16T09:19:21.004Z,95177.47
2022-11-16T09:21:50.027Z,95178.13
2022-11-16T09:24:18.589Z,95176.75
2022-11-16T09:26:47.366Z,95164.19
2022-11-16T09:29:17.148Z,95167.47
2022-11-16T09:31:45.754Z,95168.72
2022-11-16T09:34:14.709Z,95176.91
2022-11-16T09:36:42.992Z,95178.16
2022-11-16T09:39:30.553Z,95179.41
2022-11-16T09:42:20.872Z,95175.22
2022-11-16T09:45:04.907Z,95170.22
2022-11-16T09:47:42.179Z,95175.91
2022-11-16T09:50:35.129Z,95163.78
2022-11-16T09:53:15.175Z,95170.31
2022-11-16T09:55:48.997Z,95168.75
2022-11-16T09:58:21.805Z,95169.22
2022-11-16T10:00:58.431Z,95168.03
2022-11-16T10:03:29.333Z,95158.09
2022-11-16T10:06:03.833Z,95164.00
2022-11-16T10:08:43.118Z,95168.25
2022-11-16T10:11:28.981Z,95156.50
2022-11-16T10:14:07.165Z,95167.72
2022-11-16T10:16:59.307Z,95172.41
2022-11-16T10:19:35.195Z,95166.97
2022-11-16T10:22:10.122Z,95163.09
2022-11-16T10:24:53.677Z,95163.72
2022-11-16T10:27:38.646Z,95158.47
2022-11-16T10:30:13.989Z,95171.22
2022-11-16T10:32:50.327Z,95155.50
2022-11-16T10:35:23.865Z,95164.25
2022-11-16T10:37:53.198Z,95153.88
2022-11-16T10:40:24.818Z,95161.16
2022-11-16T10:43:01.502Z,95154.06
2022-11-16T10:45:36.794Z,95157.72
2022-11-16T10:48:16.876Z,95154.44
2022-11-16T10:50:49.007Z,95150.19
2022-11-16T10:53:28.226Z,95150.81
2022-11-16T10:56:12.489Z,95149.34
2022-11-16T10:58:52.697Z,95152.00
2022-11-16T11:01:33.502Z,95151.19
2022-11-16T11:04:20.969Z,95149.59
2022-11-16T11:06:51.436Z,95155.50
2022-11-16T11:09:31.692Z,95150.88
2022-11-16T11:12:23.054Z,95149.88
2022-11-16T11:15:03.072Z,95151.50
2022-11-16T11:17:32.952Z,95158.41
2022-11-16T11:20:05.590Z,95154.13
2022-11-16T11:22:36.493Z,95164.13
2022-11-16T11:25:08.122Z,95156.22
2022-11-16T11:27:36.791Z,95155.19
2022-11-16T11:30:06.635Z,95152.38
2022-11-16T11:32:41.518Z,95151.16
2022-11-16T11:35:23.955Z,95155.25
2022-11-16T11:37:55.979Z,95150.63
2022-11-16T11:40:26.781Z,95151.03
2022-11-16T11:42:58.921Z,95148.63
2022-11-16T11:45:40.138Z,95144.41
2022-11-16T11:48:24.323Z,95151.38
2022-11-16T11:50:57.237Z,95149.00
2022-11-16T11:53:40.235Z,95148.22
2022-11-16T11:56:12.581Z,95149.28
2022-11-16T11:58:42.942Z,95155.00
2022-11-16T12:01:48.433Z,95154.41
2022-11-16T12:04:51.370Z,95148.72
2022-11-16T12:07:36.901Z,95151.16
2022-11-16T12:10:17.784Z,95137.59
2022-11-16T12:12:56.855Z,95149.38
2022-11-16T12:15:49.782Z,95148.00
2022-11-16T12:18:37.149Z,95143.94
2022-11-16T12:21:12.633Z,95143.38
2022-11-16T12:24:12.112Z,95142.78
2022-11-16T12:26:51.949Z,95144.00
2022-11-16T12:29:27.113Z,95144.44
2022-11-16T12:32:20.308Z,95145.69
2022-11-16T12:35:10.270Z,95141.81
2022-11-16T12:37:46.605Z,95143.31
2022-11-16T12:40:38.628Z,95143.13
2022-11-16T12:43:17.905Z,95142.09
2022-11-16T12:45:55.717Z,95144.13
2022-11-16T12:48:49.238Z,95148.78
2022-11-16T12:51:37.393Z,95144.47
2022-11-16T12:54:26.876Z,95145.50
2022-11-16T12:57:08.222Z,95141.00
2022-11-16T12:59:52.116Z,95142.84
2022-11-16T13:02:33.007Z,95143.84
2022-11-16T13:05:06.486Z,95134.91
2022-11-16T13:07:45.751Z,95133.88
2022-11-16T13:10:18.986Z,95128.59
2022-11-16T13:12:55.878Z,95137.56
2022-11-16T13:15:35.893Z,95135.28
2022-11-16T13:18:07.341Z,95142.22
2022-11-16T13:20:43.912Z,95138.97
2022-11-16T13:23:20.073Z,95143.63
2022-11-16T13:25:55.797Z,95131.59
2022-11-16T13:28:35.705Z,95135.47
2022-11-16T13:31:12.406Z,95135.84
2022-11-16T13:33:50.633Z,95133.63
2022-11-16T13:36:46.213Z,95114.50
2022-11-16T13:39:22.725Z,95110.22
2022-11-16T13:41:52.572Z,95114.69
2022-11-16T13:44:29.773Z,95124.25
2022-11-16T13:47:04.589Z,95113.88
2022-11-16T13:49:36.538Z,95110.41
2022-11-16T13:52:22.505Z,95119.16
2022-11-16T13:54:55.225Z,95114.88
2022-11-16T13:57:26.939Z,95116.91
2022-11-16T14:00:11.314Z,95112.63
2022-11-16T14:02:41.165Z,95121.38
2022-11-16T14:05:17.513Z,95115.91
2022-11-16T14:07:49.593Z,95115.91
2022-11-16T14:11:06.745Z,95113.88
2022-11-16T14:13:40.245Z,95113.88
2022-11-16T14:16:48.108Z,95114.50
2022-11-16T14:20:04.962Z,95107.38
2022-11-16T14:22:50.746Z,95103.13
2022-11-16T14:25:33.432Z,95101.28
2022-11-16T14:28:23.278Z,95100.47
2022-11-16T14:31:02.015Z,95095.38
2022-11-16T14:33:34.471Z,95094.75
2022-11-16T14:36:05.913Z,95095.13
2022-11-16T14:38:38.569Z,95091.88
2022-11-16T14:41:08.355Z,95097.53
2022-11-16T14:43:42.685Z,95087.38
2022-11-16T14:46:21.260Z,95086.16
2022-11-16T14:48:50.459Z,95076.75
2022-11-16T14:51:23.435Z,95076.16
2022-11-16T14:53:57.499Z,95068.63
2022-11-16T14:56:26.073Z,95077.97
2022-11-16T14:58:55.804Z,95074.69
2022-11-16T15:01:27.142Z,95073.06
2022-11-16T15:03:59.307Z,95072.25
2022-11-16T15:06:28.016Z,95076.91
2022-11-16T15:09:01.580Z,95074.44
2022-11-16T15:11:46.382Z,95067.16
2022-11-16T15:14:19.423Z,95067.59
2022-11-16T15:16:52.926Z,95065.75
2022-11-16T15:19:21.969Z,95064.94
2022-11-16T15:21:54.791Z,95062.31
2022-11-16T15:24:31.487Z,95063.09
2022-11-16T15:27:11.658Z,95050.94
2022-11-16T15:29:40.229Z,95051.13
2022-11-16T15:32:16.613Z,95048.84
2022-11-16T15:34:48.743Z,95044.78
2022-11-16T15:37:27.833Z,95050.44
2022-11-16T15:39:58.380Z,95054.28
2022-11-16T15:42:29.312Z,95045.13
2022-11-16T15:45:01.117Z,95043.06
2022-11-16T15:47:29.624Z,95045.28
2022-11-16T15:49:58.034Z,95036.13
2022-11-16T15:52:43.651Z,95032.22
2022-11-16T15:55:34.450Z,95036.25
2022-11-16T15:58:06.741Z,95031.41
2022-11-16T16:00:37.694Z,95031.94
2022-11-16T16:03:17.080Z,95039.44
2022-11-16T16:05:46.089Z,95043.47
2022-11-16T16:08:27.616Z,95038.97
2022-11-16T16:11:02.441Z,95034.09
2022-11-16T16:13:33.967Z,95046.84
2022-11-16T16:16:13.833Z,95047.97
2022-11-16T16:18:44.236Z,95050.59
2022-11-16T16:21:14.316Z,95052.53
2022-11-16T16:23:47.121Z,95051.00
2022-11-16T16:26:17.530Z,95045.28
2022-11-16T16:28:46.234Z,95050.56
2022-11-16T16:31:15.474Z,95050.78
2022-11-16T16:33:43.889Z,95047.75
2022-11-16T16:36:13.636Z,95051.19
2022-11-16T16:38:42.295Z,95042.28
2022-11-16T16:41:24.335Z,95056.09
2022-11-16T16:43:53.247Z,95053.47
2022-11-16T16:46:24.995Z,95045.56
2022-11-16T16:48:56.287Z,95053.28
2022-11-16T16:51:25.033Z,95054.09
2022-11-16T16:53:53.625Z,95051.28
2022-11-16T16:56:23.725Z,95052.06
2022-11-16T16:58:54.420Z,95047.00
2022-11-16T17:01:23.117Z,95051.44
2022-11-16T17:03:51.460Z,95045.56
2022-11-16T17:06:20.002Z,95043.09
2022-11-16T17:08:48.521Z,95039.22
2022-11-16T17:11:17.929Z,95044.03
2022-11-16T17:13:47.844Z,95047.69
2022-11-16T17:16:16.358Z,95045.25
2022-11-16T17:18:44.888Z,95050.69
2022-11-16T17:21:13.379Z,95050.88
2022-11-16T17:23:42.256Z,95043.38
2022-11-16T17:26:12.195Z,95041.91
2022-11-16T17:28:40.550Z,95046.56
2022-11-16T17:31:11.995Z,95044.94
2022-11-16T17:33:42.695Z,95039.03
2022-11-16T17:36:13.482Z,95034.75
2022-11-16T17:38:41.833Z,95029.47
2022-11-16T17:41:12.639Z,95030.31
2022-11-16T17:43:42.508Z,95032.97
2022-11-16T17:46:14.322Z,95014.50
2022-11-16T17:48:44.295Z,95025.84
2022-11-16T17:51:13.977Z,95025.06
2022-11-16T17:53:44.243Z,95024.41
2022-11-16T17:56:13.605Z,95022.59
2022-11-16T17:58:42.624Z,95027.88
2022-11-16T18:01:12.463Z,95009.59
2022-11-16T18:03:41.267Z,95011.44
2022-11-16T18:06:13.248Z,95009.59
2022-11-16T18:08:43.595Z,95011.44
2022-11-16T18:11:13.342Z,95013.22
2022-11-16T18:13:41.884Z,95000.88
2022-11-16T18:16:14.773Z,94999.06
2022-11-16T18:18:44.327Z,95009.41
2022-11-16T18:21:20.126Z,95010.41
2022-11-16T18:23:49.514Z,95012.22
2022-11-16T18:26:21.545Z,95007.16
2022-11-16T18:28:50.986Z,94999.25
2022-11-16T18:31:22.632Z,94997.63
2022-11-16T18:33:54.547Z,94997.63
2022-11-16T18:36:23.545Z,94996.78
2022-11-16T18:38:52.047Z,94994.16
2022-11-16T18:41:22.390Z,94989.72
2022-11-16T18:43:52.766Z,94982.81
2022-11-16T18:46:24.357Z,94982.81
2022-11-16T18:48:52.779Z,94985.25
2022-11-16T18:51:22.303Z,94978.34
2022-11-16T18:53:51.473Z,94970.63
2022-11-16T18:56:20.534Z,94978.53
2022-11-16T18:58:50.914Z,94973.28
2022-11-16T19:01:24.104Z,94974.25
2022-11-16T19:03:53.518Z,94966.34
2022-11-16T19:06:23.276Z,94954.34
2022-11-16T19:08:59.358Z,94950.25
2022-11-16T19:11:29.003Z,94946.19
2022-11-16T19:14:00.524Z,94958.75
2022-11-16T19:16:30.994Z,94940.88
2022-11-16T19:19:01.899Z,94940.25
2022-11-16T19:21:30.440Z,94942.66
2022-11-16T19:23:58.838Z,94953.03
2022-11-16T19:26:28.533Z,94944.50
2022-11-16T19:28:57.067Z,94936.59
2022-11-16T19:31:27.004Z,94935.97
2022-11-16T19:33:58.443Z,94936.16
2022-11-16T19:36:28.924Z,94938.97
2022-11-16T19:38:57.355Z,94939.19
2022-11-16T19:41:27.134Z,94939.53
2022-11-16T19:43:59.631Z,94940.56
2022-11-16T19:46:29.349Z,94946.47
2022-11-16T19:48:59.752Z,94939.38
2022-11-16T19:51:30.029Z,94935.09
2022-11-16T19:53:59.936Z,94927.56
2022-11-16T19:56:28.300Z,94925.75
2022-11-16T19:58:56.772Z,94922.31
2022-11-16T20:01:28.820Z,94911.16
2022-11-16T20:04:00.692Z,94912.31
2022-11-16T20:06:30.764Z,94906.25
2022-11-16T20:09:02.831Z,94900.53
2022-11-16T20:11:33.778Z,94906.19
2022-11-16T20:14:03.551Z,94895.56
2022-11-16T20:16:38.372Z,94894.31
2022-11-16T20:19:09.902Z,94905.25
2022-11-16T20:21:40.064Z,94903.97
2022-11-16T20:24:10.820Z,94905.56
2022-11-16T20:26:43.311Z,94890.47
2022-11-16T20:29:12.415Z,94892.44
2022-11-16T20:31:42.833Z,94890.72
2022-11-16T20:34:14.953Z,94882.94
2022-11-16T20:36:44.856Z,94881.78
2022-11-16T20:39:15.037Z,94884.00
2022-11-16T20:41:44.021Z,94887.72
2022-11-16T20:44:16.599Z,94890.28
2022-11-16T20:46:46.189Z,94881.84
2022-11-16T20:49:16.207Z,94884.75
2022-11-16T20:51:46.866Z,94888.38
2022-11-16T20:54:15.348Z,94880.47
2022-11-16T20:56:44.471Z,94879.91
2022-11-16T20:59:13.806Z,94883.88
2022-11-16T21:01:47.609Z,94877.44
2022-11-16T21:04:17.498Z,94859.69
2022-11-16T21:06:46.017Z,94860.97
2022-11-16T21:09:22.060Z,94864.59
2022-11-16T21:12:08.469Z,94869.41
2022-11-16T21:14:36.919Z,94871.56
2022-11-16T21:17:05.383Z,94870.63
2022-11-16T21:19:35.108Z,94877.25
2022-11-16T21:22:03.489Z,94880.50
2022-11-16T21:24:32.234Z,94881.81
2022-11-16T21:27:00.610Z,94884.06
2022-11-16T21:29:29.011Z,94887.97
2022-11-16T21:31:57.409Z,94898.13
2022-11-16T21:34:27.897Z,94887.97
2022-11-16T21:36:57.720Z,94892.06
2022-11-16T21:39:26.352Z,94893.38
2022-11-16T21:41:54.736Z,94894.19
2022-11-16T21:44:23.096Z,94904.94
2022-11-16T21:46:51.543Z,94909.38
2022-11-16T21:49:19.972Z,94917.41
2022-11-16T21:51:48.310Z,94916.06
2022-11-16T21:54:17.955Z,94919.97
2022-11-16T21:56:46.291Z,94920.63
2022-11-16T21:59:14.943Z,94905.06
2022-11-16T22:02:01.635Z,94891.34
2022-11-16T22:04:47.496Z,94888.44
2022-11-16T22:07:36.812Z,94889.81
2022-11-16T22:10:09.328Z,94875.13
2022-11-16T22:12:38.219Z,94869.13
2022-11-16T22:15:09.287Z,94857.28
2022-11-16T22:17:37.811Z,94849.47
2022-11-16T22:20:07.471Z,94849.13
2022-11-16T22:22:36.052Z,94841.88
2022-11-16T22:25:04.757Z,94842.13
2022-11-16T22:27:58.453Z,94841.59
2022-11-16T22:30:25.055Z,94849.09
2022-11-16T22:32:53.622Z,94853.19
2022-11-16T22:35:21.959Z,94855.44
2022-11-16T22:37:50.319Z,94856.88
2022-11-16T22:40:18.824Z,94856.50
2022-11-16T22:42:48.631Z,94849.25
2022-11-16T22:45:17.442Z,94849.88
2022-11-16T22:47:47.729Z,94853.13
2022-11-16T22:50:18.803Z,94850.16
2022-11-16T22:52:47.161Z,94842.88
2022-11-16T22:55:15.884Z,94847.75
2022-11-16T22:57:44.218Z,94847.56
2022-11-16T23:00:15.481Z,94843.97
2022-11-16T23:02:43.818Z,94837.06
2022-11-16T23:05:12.810Z,94829.78
2022-11-16T23:07:43.935Z,94823.72
2022-11-16T23:10:12.281Z,94815.81
2022-11-16T23:12:58.218Z,94811.59
2022-11-16T23:15:44.609Z,94811.13
2022-11-16T23:18:12.943Z,94808.59
2022-11-16T23:20:58.902Z,94813.34
2022-11-16T23:23:44.956Z,94802.69
2022-11-16T23:26:33.849Z,94807.97
2022-11-16T23:29:03.666Z,94809.59
2022-11-16T23:31:33.346Z,94815.13
2022-11-16T23:34:01.716Z,94809.63
2022-11-16T23:36:30.035Z,94816.75
2022-11-16T23:38:58.406Z,94811.78
2022-11-16T23:41:44.163Z,94800.38
2022-11-16T23:44:12.453Z,94792.31
2022-11-16T23:46:42.120Z,94797.63
2022-11-16T23:49:10.447Z,94782.13
2022-11-16T23:51:38.793Z,94781.19
2022-11-16T23:54:07.571Z,94771.22
2022-11-16T23:56:35.898Z,94770.97
2022-11-16T23:59:04.247Z,94775.75
